DLH9HB LOWS-EDDF
Flight info
| Callsign | DLH9HB |
|---|---|
| Flight time | N/A |
| Altitude | 30000 |
| Route | INROM DCT SIMBA Y700 NENUM T161 DEBHI DEBHI1B |
| Aircraft | A20N/M-SDE2E3FGHIRWXY/LB1 |
Departure
| Time | 2026-05-06 14:46 |
|---|---|
| Airport | Salzburg Airport (LOWS) |
Arrival
| Time | N/A |
|---|---|
| Airport | Frankfurt Main Airport (EDDF) |
| Time | Latitude | Longitude | Altitude | Speed | Heading |
|---|---|---|---|---|---|
| 2026-05-06 14:21 | 47.79284 | 13.00059 | 1425 ft | 0 kts | 102° |
| 2026-05-06 14:41 | 47.79287 | 13.00039 | 1425 ft | 4 kts | 99° |
| 2026-05-06 14:41 | 47.79290 | 12.99999 | 1425 ft | 4 kts | 88° |
| 2026-05-06 14:41 | 47.79285 | 12.99962 | 1425 ft | 4 kts | 53° |
| 2026-05-06 14:42 | 47.79273 | 12.99948 | 1425 ft | 0 kts | 356° |
| 2026-05-06 14:43 | 47.79284 | 12.99947 | 1425 ft | 5 kts | 358° |
| 2026-05-06 14:44 | 47.79333 | 12.99988 | 1425 ft | 11 kts | 62° |
| 2026-05-06 14:44 | 47.79340 | 13.00119 | 1426 ft | 15 kts | 137° |
| 2026-05-06 14:44 | 47.79224 | 13.00197 | 1424 ft | 23 kts | 158° |
| 2026-05-06 14:45 | 47.78843 | 13.00438 | 1423 ft | 36 kts | 156° |
| 2026-05-06 14:45 | 47.78597 | 13.00590 | 1425 ft | 39 kts | 158° |
| 2026-05-06 14:45 | 47.78552 | 13.00798 | 1422 ft | 24 kts | 63° |
| 2026-05-06 14:45 | 47.78638 | 13.00850 | 1424 ft | 14 kts | 335° |
| 2026-05-06 14:46 | 47.78777 | 13.00759 | 1424 ft | 38 kts | 337° |
| 2026-05-06 14:46 | 47.79272 | 13.00448 | 1425 ft | 117 kts | 337° |
| 2026-05-06 14:46 | 47.80189 | 12.99814 | 1746 ft | 157 kts | 340° |
| 2026-05-06 14:46 | 47.81178 | 12.99189 | 2711 ft | 149 kts | 340° |
| 2026-05-06 14:47 | 47.82157 | 12.98849 | 3672 ft | 144 kts | 3° |
| 2026-05-06 14:47 | 47.83054 | 12.99284 | 4305 ft | 134 kts | 34° |
| 2026-05-06 14:47 | 47.83804 | 13.00056 | 4630 ft | 134 kts | 38° |
| 2026-05-06 14:47 | 47.84588 | 13.00928 | 4901 ft | 144 kts | 37° |
| 2026-05-06 14:48 | 47.85381 | 13.01830 | 5295 ft | 142 kts | 38° |
| 2026-05-06 14:48 | 47.86165 | 13.02745 | 5657 ft | 144 kts | 39° |
| 2026-05-06 14:48 | 47.86950 | 13.03707 | 6052 ft | 148 kts | 41° |
| 2026-05-06 14:48 | 47.87732 | 13.04732 | 6431 ft | 156 kts | 44° |
| 2026-05-06 14:49 | 47.88576 | 13.05954 | 6817 ft | 181 kts | 47° |
| 2026-05-06 14:49 | 47.89457 | 13.07408 | 7326 ft | 196 kts | 51° |
| 2026-05-06 14:49 | 47.90287 | 13.09049 | 7931 ft | 205 kts | 58° |
| 2026-05-06 14:49 | 47.91014 | 13.10918 | 8591 ft | 211 kts | 68° |
| 2026-05-06 14:50 | 47.91523 | 13.12981 | 9288 ft | 214 kts | 81° |
| 2026-05-06 14:50 | 47.91682 | 13.15169 | 9964 ft | 212 kts | 99° |
| 2026-05-06 14:50 | 47.91332 | 13.17250 | 10632 ft | 204 kts | 126° |
| 2026-05-06 14:50 | 47.90384 | 13.18661 | 11294 ft | 187 kts | 167° |
| 2026-05-06 14:51 | 47.89213 | 13.18494 | 11901 ft | 171 kts | 222° |
| 2026-05-06 14:51 | 47.88687 | 13.16895 | 12183 ft | 192 kts | 255° |
| 2026-05-06 14:51 | 47.88862 | 13.14822 | 11836 ft | 219 kts | 295° |
| 2026-05-06 14:51 | 47.90102 | 13.13331 | 11978 ft | 249 kts | 336° |
| 2026-05-06 14:52 | 47.91894 | 13.12821 | 12346 ft | 278 kts | 355° |
| 2026-05-06 14:52 | 47.93911 | 13.13215 | 12694 ft | 307 kts | 13° |
| 2026-05-06 14:52 | 47.95984 | 13.14407 | 13063 ft | 332 kts | 24° |
| 2026-05-06 14:52 | 47.98082 | 13.16124 | 13446 ft | 356 kts | 30° |
| 2026-05-06 14:53 | 48.00215 | 13.18205 | 13809 ft | 376 kts | 35° |
| 2026-05-06 14:53 | 48.02517 | 13.20159 | 14359 ft | 386 kts | 17° |
| 2026-05-06 14:53 | 48.05166 | 13.20704 | 15069 ft | 386 kts | 353° |
| 2026-05-06 14:53 | 48.07736 | 13.19726 | 15805 ft | 381 kts | 329° |
| 2026-05-06 14:54 | 48.09844 | 13.17422 | 16556 ft | 374 kts | 309° |
| 2026-05-06 14:54 | 48.11551 | 13.14490 | 17339 ft | 376 kts | 304° |
| 2026-05-06 14:54 | 48.13288 | 13.11519 | 18091 ft | 383 kts | 307° |
| 2026-05-06 14:54 | 48.15240 | 13.08755 | 18752 ft | 391 kts | 314° |
| 2026-05-06 14:55 | 48.17432 | 13.06260 | 19420 ft | 399 kts | 320° |
| 2026-05-06 14:55 | 48.19793 | 13.04012 | 20060 ft | 406 kts | 323° |
| 2026-05-06 14:55 | 48.22287 | 13.01954 | 20716 ft | 414 kts | 330° |
| 2026-05-06 14:55 | 48.25074 | 13.00613 | 21353 ft | 426 kts | 342° |
| 2026-05-06 14:56 | 48.28010 | 12.99810 | 21987 ft | 433 kts | 347° |
| 2026-05-06 14:56 | 48.31024 | 12.99257 | 22592 ft | 439 kts | 349° |
| 2026-05-06 14:56 | 48.34078 | 12.98775 | 23224 ft | 443 kts | 349° |
| 2026-05-06 14:56 | 48.37153 | 12.98271 | 23702 ft | 448 kts | 349° |
| 2026-05-06 14:57 | 48.40263 | 12.97706 | 24167 ft | 452 kts | 348° |
| 2026-05-06 14:57 | 48.43391 | 12.97084 | 24634 ft | 454 kts | 347° |
| 2026-05-06 14:57 | 48.46533 | 12.96419 | 25144 ft | 457 kts | 347° |
| 2026-05-06 14:57 | 48.49687 | 12.95728 | 25627 ft | 459 kts | 346° |
| 2026-05-06 14:58 | 48.52848 | 12.94939 | 26077 ft | 459 kts | 340° |
| 2026-05-06 14:58 | 48.55748 | 12.93141 | 26508 ft | 446 kts | 321° |
| 2026-05-06 14:58 | 48.58061 | 12.90249 | 26963 ft | 432 kts | 304° |
| 2026-05-06 14:58 | 48.59663 | 12.86467 | 27392 ft | 418 kts | 286° |
| 2026-05-06 14:59 | 48.60361 | 12.82341 | 27838 ft | 405 kts | 270° |
| 2026-05-06 14:59 | 48.60496 | 12.78106 | 28305 ft | 403 kts | 265° |
| 2026-05-06 14:59 | 48.60623 | 12.73851 | 28758 ft | 407 kts | 269° |
| 2026-05-06 14:59 | 48.60987 | 12.69583 | 29186 ft | 414 kts | 274° |
| 2026-05-06 15:00 | 48.61633 | 12.65314 | 29596 ft | 420 kts | 278° |
| 2026-05-06 15:00 | 48.62499 | 12.61064 | 29729 ft | 425 kts | 282° |
| 2026-05-06 15:00 | 48.63516 | 12.56848 | 29730 ft | 427 kts | 284° |
| 2026-05-06 15:01 | 48.65719 | 12.48504 | 29728 ft | 428 kts | 285° |
| 2026-05-06 15:01 | 48.67935 | 12.40138 | 29733 ft | 427 kts | 284° |
| 2026-05-06 15:02 | 48.70095 | 12.31764 | 29733 ft | 427 kts | 284° |
| 2026-05-06 15:02 | 48.72224 | 12.23371 | 29732 ft | 427 kts | 284° |
| 2026-05-06 15:03 | 48.74330 | 12.15009 | 29733 ft | 428 kts | 284° |
| 2026-05-06 15:03 | 48.75833 | 12.06412 | 29735 ft | 419 kts | 274° |
| 2026-05-06 15:04 | 48.76733 | 11.97704 | 29735 ft | 418 kts | 272° |
| 2026-05-06 15:04 | 48.77560 | 11.88986 | 29743 ft | 418 kts | 272° |
| 2026-05-06 15:05 | 48.78442 | 11.80278 | 29746 ft | 418 kts | 272° |
| 2026-05-06 15:05 | 48.79360 | 11.71552 | 29753 ft | 419 kts | 272° |
| 2026-05-06 15:06 | 48.80282 | 11.62821 | 29753 ft | 419 kts | 272° |
| 2026-05-06 15:06 | 48.81193 | 11.54089 | 29743 ft | 419 kts | 272° |
| 2026-05-06 15:07 | 48.82092 | 11.45363 | 29755 ft | 419 kts | 272° |
| 2026-05-06 15:07 | 48.82986 | 11.36617 | 29748 ft | 420 kts | 272° |
| 2026-05-06 15:08 | 48.83877 | 11.27836 | 29744 ft | 421 kts | 272° |
| 2026-05-06 15:08 | 48.85480 | 11.19238 | 29746 ft | 440 kts | 294° |
| 2026-05-06 15:08 | 48.87436 | 11.15579 | 29751 ft | 454 kts | 309° |
| 2026-05-06 15:09 | 48.89854 | 11.12432 | 29746 ft | 461 kts | 315° |
| 2026-05-06 15:09 | 48.92400 | 11.09496 | 29477 ft | 457 kts | 316° |
| 2026-05-06 15:09 | 48.94904 | 11.06615 | 29169 ft | 446 kts | 315° |
| 2026-05-06 15:09 | 48.97297 | 11.03728 | 28959 ft | 433 kts | 314° |
| 2026-05-06 15:10 | 48.99581 | 11.00810 | 28726 ft | 422 kts | 312° |
| 2026-05-06 15:10 | 49.01750 | 10.97907 | 28528 ft | 410 kts | 311° |
| 2026-05-06 15:10 | 49.03837 | 10.95024 | 28337 ft | 399 kts | 310° |
| 2026-05-06 15:10 | 49.05848 | 10.92197 | 28134 ft | 389 kts | 310° |
| 2026-05-06 15:11 | 49.07805 | 10.89423 | 27941 ft | 379 kts | 310° |
| 2026-05-06 15:11 | 49.09709 | 10.86715 | 27756 ft | 370 kts | 310° |
| 2026-05-06 15:11 | 49.11566 | 10.84073 | 27579 ft | 360 kts | 310° |
| 2026-05-06 15:11 | 49.13379 | 10.81498 | 27418 ft | 351 kts | 310° |
| 2026-05-06 15:12 | 49.15142 | 10.78995 | 27251 ft | 342 kts | 310° |
| 2026-05-06 15:12 | 49.16866 | 10.76546 | 27057 ft | 335 kts | 309° |
| 2026-05-06 15:12 | 49.18561 | 10.74136 | 26782 ft | 330 kts | 309° |
| 2026-05-06 15:12 | 49.20196 | 10.71708 | 26459 ft | 326 kts | 307° |
| 2026-05-06 15:13 | 49.21756 | 10.69272 | 26130 ft | 323 kts | 307° |
| 2026-05-06 15:13 | 49.23319 | 10.66805 | 25814 ft | 322 kts | 308° |
| 2026-05-06 15:13 | 49.24874 | 10.64349 | 25470 ft | 320 kts | 309° |
| 2026-05-06 15:13 | 49.26418 | 10.61911 | 25182 ft | 318 kts | 309° |
| 2026-05-06 15:14 | 49.27953 | 10.59487 | 24902 ft | 315 kts | 309° |
| 2026-05-06 15:14 | 49.29470 | 10.57093 | 24604 ft | 313 kts | 309° |
| 2026-05-06 15:14 | 49.30982 | 10.54703 | 24322 ft | 311 kts | 309° |
| 2026-05-06 15:14 | 49.32480 | 10.52333 | 24039 ft | 309 kts | 309° |
| 2026-05-06 15:15 | 49.33969 | 10.49976 | 23829 ft | 306 kts | 309° |
| 2026-05-06 15:15 | 49.35449 | 10.47632 | 23800 ft | 306 kts | 309° |
| 2026-05-06 15:15 | 49.36795 | 10.45133 | 23797 ft | 303 kts | 302° |
| 2026-05-06 15:15 | 49.38014 | 10.42500 | 23797 ft | 302 kts | 300° |
| 2026-05-06 15:16 | 49.39214 | 10.39849 | 23640 ft | 303 kts | 300° |
| 2026-05-06 15:16 | 49.40413 | 10.37198 | 23346 ft | 301 kts | 301° |
| 2026-05-06 15:16 | 49.41606 | 10.34567 | 23007 ft | 299 kts | 301° |
| 2026-05-06 15:16 | 49.42792 | 10.31957 | 22642 ft | 297 kts | 301° |
| 2026-05-06 15:17 | 49.43972 | 10.29358 | 22270 ft | 296 kts | 301° |
| 2026-05-06 15:17 | 49.45150 | 10.26765 | 21910 ft | 295 kts | 301° |
| 2026-05-06 15:17 | 49.46319 | 10.24191 | 21588 ft | 293 kts | 301° |
| 2026-05-06 15:17 | 49.47482 | 10.21629 | 21256 ft | 290 kts | 301° |
| 2026-05-06 15:18 | 49.48633 | 10.19090 | 20931 ft | 288 kts | 301° |
| 2026-05-06 15:18 | 49.49775 | 10.16572 | 20606 ft | 287 kts | 301° |
| 2026-05-06 15:18 | 49.50912 | 10.14059 | 20288 ft | 285 kts | 301° |
| 2026-05-06 15:18 | 49.52039 | 10.11567 | 20004 ft | 283 kts | 301° |
| 2026-05-06 15:19 | 49.53162 | 10.09084 | 19741 ft | 282 kts | 301° |
| 2026-05-06 15:19 | 49.54277 | 10.06615 | 19437 ft | 281 kts | 301° |
| 2026-05-06 15:19 | 49.55388 | 10.04150 | 19142 ft | 279 kts | 301° |
| 2026-05-06 15:19 | 49.56492 | 10.01702 | 18831 ft | 278 kts | 301° |
| 2026-05-06 15:20 | 49.57591 | 9.99261 | 18508 ft | 276 kts | 301° |
| 2026-05-06 15:20 | 49.58682 | 9.96834 | 18209 ft | 275 kts | 301° |
| 2026-05-06 15:20 | 49.59768 | 9.94418 | 17883 ft | 274 kts | 301° |
| 2026-05-06 15:20 | 49.60847 | 9.92013 | 17548 ft | 272 kts | 301° |
| 2026-05-06 15:21 | 49.61922 | 9.89616 | 17197 ft | 271 kts | 301° |
| 2026-05-06 15:21 | 49.62993 | 9.87226 | 16869 ft | 270 kts | 301° |
| 2026-05-06 15:21 | 49.64059 | 9.84846 | 16552 ft | 268 kts | 301° |
| 2026-05-06 15:21 | 49.65116 | 9.82484 | 16216 ft | 267 kts | 301° |
| 2026-05-06 15:22 | 49.66167 | 9.80132 | 15896 ft | 265 kts | 301° |
| 2026-05-06 15:22 | 49.67211 | 9.77795 | 15589 ft | 264 kts | 301° |
| 2026-05-06 15:22 | 49.68249 | 9.75467 | 15260 ft | 262 kts | 301° |
| 2026-05-06 15:22 | 49.69283 | 9.73148 | 14957 ft | 261 kts | 301° |
| 2026-05-06 15:23 | 49.70310 | 9.70843 | 14648 ft | 260 kts | 301° |
| 2026-05-06 15:23 | 49.71332 | 9.68547 | 14361 ft | 259 kts | 301° |
| 2026-05-06 15:23 | 49.72349 | 9.66259 | 14065 ft | 258 kts | 301° |
| 2026-05-06 15:23 | 49.73360 | 9.63983 | 13777 ft | 256 kts | 301° |
| 2026-05-06 15:24 | 49.74367 | 9.61713 | 13466 ft | 255 kts | 301° |
| 2026-05-06 15:24 | 49.75365 | 9.59463 | 13154 ft | 253 kts | 301° |
| 2026-05-06 15:24 | 49.76360 | 9.57217 | 12838 ft | 252 kts | 301° |
| 2026-05-06 15:24 | 49.77348 | 9.54984 | 12524 ft | 251 kts | 301° |
| 2026-05-06 15:25 | 49.78329 | 9.52767 | 12227 ft | 249 kts | 302° |
| 2026-05-06 15:25 | 49.79306 | 9.50554 | 11923 ft | 248 kts | 301° |
| 2026-05-06 15:25 | 49.80275 | 9.48359 | 11635 ft | 246 kts | 301° |
| 2026-05-06 15:25 | 49.81225 | 9.46211 | 11347 ft | 245 kts | 301° |
| 2026-05-06 15:26 | 49.82184 | 9.44035 | 11047 ft | 244 kts | 302° |
| 2026-05-06 15:26 | 49.83150 | 9.41839 | 10759 ft | 243 kts | 302° |